createdAt,value
2019-06-08T00:01:18.201Z,15.36
2019-06-08T00:03:43.878Z,15.37
2019-06-08T00:06:10.617Z,15.56
2019-06-08T00:08:37.377Z,15.41
2019-06-08T00:11:04.110Z,15.47
2019-06-08T00:13:30.854Z,15.47
2019-06-08T00:15:57.700Z,15.42
2019-06-08T00:18:24.444Z,15.52
2019-06-08T00:20:51.247Z,15.49
2019-06-08T00:23:17.923Z,15.56
2019-06-08T00:25:44.658Z,16.08
2019-06-08T00:28:11.406Z,16.22
2019-06-08T00:30:39.230Z,15.88
2019-06-08T00:33:04.923Z,15.69
2019-06-08T00:35:31.690Z,15.70
2019-06-08T00:37:58.468Z,15.69
2019-06-08T00:40:25.284Z,15.66
2019-06-08T00:42:51.950Z,15.55
2019-06-08T00:45:20.024Z,15.48
2019-06-08T00:47:47.980Z,15.53
2019-06-08T00:50:12.174Z,15.55
2019-06-08T00:52:38.906Z,15.46
2019-06-08T00:55:05.713Z,15.26
2019-06-08T00:57:32.466Z,15.63
2019-06-08T00:59:59.202Z,15.26
2019-06-08T01:02:26.835Z,15.31
2019-06-08T01:04:52.666Z,15.30
2019-06-08T01:07:19.940Z,15.50
2019-06-08T01:09:46.144Z,15.38
2019-06-08T01:12:12.913Z,15.43
2019-06-08T01:14:39.647Z,15.53
2019-06-08T01:17:06.410Z,15.50
2019-06-08T01:19:33.135Z,15.40
2019-06-08T01:21:59.892Z,15.42
2019-06-08T01:24:27.817Z,15.50
2019-06-08T01:26:53.366Z,15.25
2019-06-08T01:29:20.227Z,15.27
2019-06-08T01:31:46.858Z,15.30
2019-06-08T01:34:13.598Z,15.24
2019-06-08T01:36:40.319Z,15.26
2019-06-08T01:39:07.070Z,15.29
2019-06-08T01:41:33.813Z,15.28
2019-06-08T01:44:00.578Z,15.34
2019-06-08T01:46:28.266Z,15.27
2019-06-08T01:48:54.066Z,15.27
2019-06-08T01:51:20.830Z,15.30
2019-06-08T01:53:47.562Z,15.29
2019-06-08T01:56:14.533Z,15.28
2019-06-08T01:58:41.268Z,15.26
2019-06-08T02:01:08.002Z,15.32
2019-06-08T02:03:34.939Z,15.33
2019-06-08T02:06:01.542Z,15.35
2019-06-08T02:08:28.645Z,15.31
2019-06-08T02:10:55.018Z,15.30
2019-06-08T02:13:21.738Z,15.31
2019-06-08T02:15:48.483Z,15.31
2019-06-08T02:18:15.222Z,15.39
2019-06-08T02:20:42.010Z,15.32
2019-06-08T02:23:08.725Z,15.30
2019-06-08T02:25:35.766Z,15.18
2019-06-08T02:28:02.783Z,15.25
2019-06-08T02:30:31.190Z,15.15
2019-06-08T02:32:56.463Z,15.15
2019-06-08T02:35:23.208Z,15.04
2019-06-08T02:37:49.934Z,14.97
2019-06-08T02:40:16.696Z,14.96
2019-06-08T02:42:43.417Z,14.95
2019-06-08T02:45:10.178Z,14.92
2019-06-08T02:47:36.949Z,14.88
2019-06-08T02:50:04.247Z,14.80
2019-06-08T02:52:31.910Z,14.85
2019-06-08T02:54:57.850Z,14.88
2019-06-08T02:57:24.593Z,14.81
2019-06-08T02:59:51.599Z,14.86
2019-06-08T03:02:18.322Z,14.78
2019-06-08T03:04:45.106Z,14.76
2019-06-08T03:07:11.827Z,14.73
2019-06-08T03:09:38.692Z,14.71
2019-06-08T03:12:05.287Z,14.62
2019-06-08T03:14:33.371Z,14.59
2019-06-08T03:16:58.787Z,14.59
2019-06-08T03:19:25.515Z,14.60
2019-06-08T03:21:52.239Z,14.59
2019-06-08T03:24:18.952Z,14.58
2019-06-08T03:26:45.700Z,14.53
2019-06-08T03:29:12.424Z,14.59
2019-06-08T03:31:49.704Z,14.66
2019-06-08T03:34:06.029Z,14.66
2019-06-08T03:36:38.586Z,14.45
2019-06-08T03:38:59.495Z,14.39
2019-06-08T03:41:26.240Z,14.34
2019-06-08T03:43:52.954Z,14.39
2019-06-08T03:46:19.703Z,14.46
2019-06-08T03:48:46.628Z,14.31
2019-06-08T03:51:13.183Z,14.39
2019-06-08T03:53:40.524Z,14.53
2019-06-08T03:56:06.663Z,14.50
2019-06-08T03:58:34.302Z,14.52
2019-06-08T04:01:00.142Z,14.76
2019-06-08T04:03:26.868Z,14.98
2019-06-08T04:05:53.607Z,14.95
2019-06-08T04:08:20.430Z,14.80
2019-06-08T04:10:47.194Z,14.79
2019-06-08T04:13:13.929Z,14.75
2019-06-08T04:15:42.144Z,15.09
2019-06-08T04:18:07.415Z,15.35
2019-06-08T04:20:34.160Z,15.60
2019-06-08T04:23:00.906Z,15.74
2019-06-08T04:25:27.619Z,15.49
2019-06-08T04:27:54.350Z,15.39
2019-06-08T04:30:21.095Z,15.30
2019-06-08T04:32:49.667Z,15.14
2019-06-08T04:35:14.586Z,15.44
2019-06-08T04:37:42.672Z,15.33
2019-06-08T04:40:08.071Z,15.09
2019-06-08T04:42:34.795Z,14.69
2019-06-08T04:45:01.546Z,14.71
2019-06-08T04:47:28.278Z,14.44
2019-06-08T04:49:55.011Z,14.67
2019-06-08T04:52:21.759Z,14.92
2019-06-08T04:54:49.761Z,15.24
2019-06-08T04:57:15.250Z,15.52
2019-06-08T04:59:43.867Z,15.36
2019-06-08T05:02:08.727Z,15.34
2019-06-08T05:04:35.467Z,15.82
2019-06-08T05:07:02.213Z,15.55
2019-06-08T05:09:28.939Z,15.36
2019-06-08T05:11:55.696Z,15.40
2019-06-08T05:14:22.447Z,15.21
2019-06-08T05:16:49.701Z,15.34
2019-06-08T05:19:15.920Z,15.39
2019-06-08T05:21:43.530Z,15.36
2019-06-08T05:24:09.479Z,15.58
2019-06-08T05:26:36.238Z,15.49
2019-06-08T05:29:03.100Z,15.13
2019-06-08T05:31:29.866Z,15.26
2019-06-08T05:33:56.582Z,15.57
2019-06-08T05:36:23.501Z,15.32
2019-06-08T05:38:50.227Z,15.40
2019-06-08T05:41:17.014Z,15.12
2019-06-08T05:43:43.709Z,15.22
2019-06-08T05:46:10.461Z,15.41
2019-06-08T05:48:37.200Z,15.14
2019-06-08T05:51:04.553Z,15.00
2019-06-08T05:53:30.698Z,14.98
2019-06-08T05:55:57.446Z,15.04
2019-06-08T05:58:24.171Z,15.08
2019-06-08T06:00:50.908Z,15.32
2019-06-08T06:03:17.646Z,15.28
2019-06-08T06:05:44.411Z,15.23
2019-06-08T06:08:18.830Z,15.24
2019-06-08T06:10:37.970Z,15.30
2019-06-08T06:13:04.697Z,15.62
2019-06-08T06:15:31.459Z,15.86
2019-06-08T06:17:58.185Z,15.84
2019-06-08T06:20:24.922Z,15.97
2019-06-08T06:22:52.556Z,15.30
2019-06-08T06:25:18.394Z,15.37
2019-06-08T06:27:45.558Z,15.58
2019-06-08T06:30:11.879Z,15.50
2019-06-08T06:32:38.617Z,15.24
2019-06-08T06:35:05.350Z,15.30
2019-06-08T06:37:32.115Z,15.35
2019-06-08T06:39:58.838Z,15.57
2019-06-08T06:42:25.604Z,15.58
2019-06-08T06:44:52.520Z,15.58
2019-06-08T06:47:19.114Z,15.65
2019-06-08T06:49:46.397Z,15.62
2019-06-08T06:52:12.661Z,15.85
2019-06-08T06:54:39.398Z,16.08
2019-06-08T06:57:06.150Z,16.44
2019-06-08T06:59:32.904Z,16.35
2019-06-08T07:01:59.931Z,16.57
2019-06-08T07:04:26.666Z,16.17
2019-06-08T07:06:54.418Z,16.34
2019-06-08T07:09:20.435Z,16.08
2019-06-08T07:11:47.190Z,16.47
2019-06-08T07:14:13.934Z,16.37
2019-06-08T07:16:40.674Z,16.03
2019-06-08T07:19:07.406Z,16.45
2019-06-08T07:21:41.656Z,16.68
2019-06-08T07:24:00.893Z,16.85
2019-06-08T07:26:27.652Z,16.65
2019-06-08T07:28:55.348Z,16.51
2019-06-08T07:31:21.148Z,16.32
2019-06-08T07:33:48.744Z,16.57
2019-06-08T07:36:14.611Z,17.21
2019-06-08T07:38:41.334Z,17.53
2019-06-08T07:41:08.078Z,17.17
2019-06-08T07:43:34.794Z,17.71
2019-06-08T07:46:01.535Z,17.34
2019-06-08T07:48:28.290Z,18.15
2019-06-08T07:50:56.278Z,18.30
2019-06-08T07:53:21.781Z,18.15
2019-06-08T07:55:49.958Z,17.77
2019-06-08T07:58:15.339Z,17.01
2019-06-08T08:00:42.068Z,16.69
2019-06-08T08:03:08.814Z,16.66
2019-06-08T08:05:35.522Z,17.43
2019-06-08T08:08:02.259Z,17.68
2019-06-08T08:10:28.990Z,17.46
2019-06-08T08:12:56.744Z,17.45
2019-06-08T08:15:22.441Z,17.19
2019-06-08T08:17:49.207Z,17.10
2019-06-08T08:20:15.930Z,17.11
2019-06-08T08:22:42.670Z,17.01
2019-06-08T08:25:09.405Z,17.19
2019-06-08T08:27:37.595Z,18.07
2019-06-08T08:30:02.973Z,17.69
2019-06-08T08:32:29.742Z,17.89
2019-06-08T08:34:58.739Z,18.19
2019-06-08T08:37:23.223Z,18.28
2019-06-08T08:39:50.567Z,18.71
2019-06-08T08:42:18.012Z,18.83
2019-06-08T08:44:43.406Z,19.53
2019-06-08T08:47:10.156Z,18.84
2019-06-08T08:49:38.039Z,18.51
2019-06-08T08:52:03.626Z,18.25
2019-06-08T08:54:30.350Z,18.29
2019-06-08T08:57:01.637Z,18.15
2019-06-08T08:59:23.818Z,18.30
2019-06-08T09:01:51.812Z,18.38
2019-06-08T09:04:18.515Z,18.36
2019-06-08T09:06:44.077Z,18.60
2019-06-08T09:09:10.824Z,19.02
2019-06-08T09:11:38.356Z,18.92
2019-06-08T09:14:10.938Z,18.64
2019-06-08T09:16:32.643Z,18.81
2019-06-08T09:19:02.151Z,19.08
2019-06-08T09:21:28.144Z,19.17
2019-06-08T09:23:53.849Z,20.06
2019-06-08T09:26:19.638Z,20.01
2019-06-08T09:28:46.393Z,20.53
2019-06-08T09:31:13.286Z,19.49
2019-06-08T09:33:39.875Z,19.98
2019-06-08T09:36:08.002Z,19.55
2019-06-08T09:38:33.370Z,19.16
2019-06-08T09:41:03.439Z,18.91
2019-06-08T09:43:28.746Z,19.15
2019-06-08T09:45:54.283Z,19.41
2019-06-08T09:48:20.323Z,19.79
2019-06-08T09:50:48.656Z,19.78
2019-06-08T09:53:23.905Z,19.99
2019-06-08T09:55:41.380Z,19.69
2019-06-08T09:58:11.215Z,19.41
2019-06-08T10:00:34.282Z,19.63
2019-06-08T10:03:03.851Z,19.42
2019-06-08T10:05:27.806Z,19.72
2019-06-08T10:07:54.545Z,19.91
2019-06-08T10:10:21.262Z,19.79
2019-06-08T10:12:48.427Z,19.53
2019-06-08T10:15:14.811Z,20.28
2019-06-08T10:17:41.556Z,20.25
2019-06-08T10:20:10.038Z,19.72
2019-06-08T10:22:35.193Z,19.63
2019-06-08T10:25:05.386Z,20.29
2019-06-08T10:27:28.754Z,20.19
2019-06-08T10:29:58.631Z,20.68
2019-06-08T10:32:22.273Z,20.78
2019-06-08T10:34:49.062Z,20.52
2019-06-08T10:37:18.466Z,20.41
2019-06-08T10:39:42.577Z,20.39
2019-06-08T10:42:11.363Z,20.53
2019-06-08T10:44:38.046Z,20.63
2019-06-08T10:47:04.068Z,21.25
2019-06-08T10:49:29.646Z,21.52
2019-06-08T10:51:59.008Z,21.07
2019-06-08T10:54:23.194Z,20.83
2019-06-08T10:56:49.950Z,20.78
2019-06-08T10:59:18.551Z,21.12
2019-06-08T11:01:43.470Z,20.49
2019-06-08T11:04:10.176Z,20.64
2019-06-08T11:06:39.886Z,20.83
2019-06-08T11:09:10.200Z,21.37
2019-06-08T11:11:31.566Z,21.04
2019-06-08T11:14:00.066Z,21.64
2019-06-08T11:16:25.075Z,20.60
2019-06-08T11:18:51.811Z,20.67
2019-06-08T11:21:19.015Z,21.23
2019-06-08T11:23:59.861Z,21.09
2019-06-08T11:26:19.760Z,21.85
2019-06-08T11:28:38.842Z,22.05
2019-06-08T11:31:08.427Z,21.91
2019-06-08T11:33:32.384Z,22.63
2019-06-08T11:36:02.975Z,21.56
2019-06-08T11:38:28.710Z,22.02
2019-06-08T11:40:52.698Z,22.51
2019-06-08T11:43:19.451Z,22.78
2019-06-08T11:45:48.081Z,21.63
2019-06-08T11:48:13.025Z,22.41
2019-06-08T11:50:42.068Z,21.43
2019-06-08T11:53:07.825Z,22.71
2019-06-08T11:55:33.438Z,21.90
2019-06-08T11:58:00.905Z,21.67
2019-06-08T12:01:01.867Z,21.43
2019-06-08T12:03:30.187Z,22.00
2019-06-08T12:05:54.422Z,21.49
2019-06-08T12:08:21.199Z,21.74
2019-06-08T12:10:49.109Z,22.57
2019-06-08T12:13:17.444Z,23.08
2019-06-08T12:15:41.559Z,21.70
2019-06-08T12:18:09.816Z,21.80
2019-06-08T12:20:37.577Z,21.68
2019-06-08T12:23:01.939Z,22.20
2019-06-08T12:25:28.730Z,21.63
2019-06-08T12:27:55.474Z,21.37
2019-06-08T12:30:25.830Z,21.70
2019-06-08T12:32:49.066Z,21.88
2019-06-08T12:35:17.984Z,22.20
2019-06-08T12:37:42.650Z,22.17
2019-06-08T12:40:12.886Z,21.94
2019-06-08T12:42:38.181Z,21.76
2019-06-08T12:45:03.270Z,21.77
2019-06-08T12:47:30.113Z,22.05
2019-06-08T12:49:58.502Z,22.36
2019-06-08T12:52:23.901Z,22.26
2019-06-08T12:54:59.982Z,22.23
2019-06-08T12:57:19.907Z,22.15
2019-06-08T12:59:45.522Z,21.29
2019-06-08T13:02:15.658Z,22.27
2019-06-08T13:04:38.400Z,22.58
2019-06-08T13:07:04.653Z,22.94
2019-06-08T13:09:31.382Z,22.48
2019-06-08T13:11:59.445Z,21.81
2019-06-08T13:14:25.047Z,22.00
2019-06-08T13:16:52.973Z,22.05
2019-06-08T13:19:18.435Z,23.07
2019-06-08T13:21:45.214Z,22.61
2019-06-08T13:24:13.151Z,22.29
2019-06-08T13:26:38.794Z,22.68
2019-06-08T13:29:05.525Z,22.85
2019-06-08T13:31:32.375Z,23.14
2019-06-08T13:33:59.098Z,22.66
2019-06-08T13:36:28.868Z,22.44
2019-06-08T13:38:52.689Z,22.18
2019-06-08T13:41:24.124Z,22.93
2019-06-08T13:43:47.814Z,22.51
2019-06-08T13:46:13.722Z,22.09
2019-06-08T13:48:39.847Z,22.14
2019-06-08T13:51:08.409Z,22.60
2019-06-08T13:53:33.343Z,22.53
2019-06-08T13:56:00.175Z,22.65
2019-06-08T13:58:33.029Z,22.35
2019-06-08T14:00:56.613Z,22.39
2019-06-08T14:03:21.709Z,22.71
2019-06-08T14:05:47.819Z,22.76
2019-06-08T14:08:14.569Z,23.24
2019-06-08T14:10:40.894Z,22.87
2019-06-08T14:13:07.646Z,22.59
2019-06-08T14:15:34.411Z,22.46
2019-06-08T14:18:01.260Z,22.36
2019-06-08T14:20:32.475Z,22.22
2019-06-08T14:22:54.826Z,22.38
2019-06-08T14:25:22.914Z,22.79
2019-06-08T14:27:48.494Z,23.18
2019-06-08T14:30:15.251Z,23.12
2019-06-08T14:32:42.004Z,22.56
2019-06-08T14:35:08.972Z,22.73
2019-06-08T14:37:37.945Z,22.81
2019-06-08T14:40:02.611Z,22.95
2019-06-08T14:42:30.527Z,22.32
2019-06-08T14:44:57.848Z,22.18
2019-06-08T14:47:22.838Z,21.98
2019-06-08T14:49:49.646Z,22.15
2019-06-08T14:52:18.814Z,22.11
2019-06-08T14:54:43.167Z,22.48
2019-06-08T14:57:09.942Z,22.94
2019-06-08T14:59:36.767Z,23.37
2019-06-08T15:02:03.510Z,23.75
2019-06-08T15:04:35.975Z,23.00
2019-06-08T15:06:58.592Z,22.45
2019-06-08T15:09:23.714Z,22.15
2019-06-08T15:11:50.469Z,23.07
2019-06-08T15:14:17.201Z,23.48
2019-06-08T15:16:43.954Z,23.31
2019-06-08T15:19:10.766Z,23.69
2019-06-08T15:21:38.084Z,23.75
2019-06-08T15:24:04.283Z,23.66
2019-06-08T15:26:39.580Z,23.62
2019-06-08T15:28:58.748Z,23.53
2019-06-08T15:31:25.183Z,23.18
2019-06-08T15:33:51.238Z,22.95
2019-06-08T15:36:20.507Z,23.08
2019-06-08T15:38:44.760Z,22.94
2019-06-08T15:41:11.493Z,23.35
2019-06-08T15:43:40.384Z,23.54
2019-06-08T15:46:04.958Z,23.36
2019-06-08T15:48:32.877Z,23.21
2019-06-08T15:50:58.552Z,23.37
2019-06-08T15:53:26.442Z,23.59
2019-06-08T15:55:51.961Z,23.60
2019-06-08T15:58:18.690Z,23.74
2019-06-08T16:00:45.431Z,23.55
2019-06-08T16:03:12.158Z,22.92
2019-06-08T16:05:38.931Z,22.63
2019-06-08T16:08:05.658Z,22.46
2019-06-08T16:10:32.411Z,22.76
2019-06-08T16:12:59.126Z,22.69
2019-06-08T16:15:26.834Z,22.77
2019-06-08T16:17:52.615Z,22.78
2019-06-08T16:20:19.434Z,22.61
2019-06-08T16:22:46.095Z,22.80
2019-06-08T16:25:13.010Z,23.08
2019-06-08T16:27:39.802Z,23.34
2019-06-08T16:30:09.657Z,23.48
2019-06-08T16:32:33.561Z,24.02
2019-06-08T16:35:00.022Z,24.56
2019-06-08T16:37:27.492Z,24.39
2019-06-08T16:39:53.498Z,24.22
2019-06-08T16:42:20.255Z,24.93
2019-06-08T16:44:46.977Z,24.64
2019-06-08T16:47:13.722Z,24.87
2019-06-08T16:49:40.545Z,25.11
2019-06-08T16:52:07.286Z,25.69
2019-06-08T16:54:35.093Z,25.18
2019-06-08T16:57:09.857Z,24.49
2019-06-08T16:59:28.123Z,24.93
2019-06-08T17:01:54.215Z,24.55
2019-06-08T17:04:20.938Z,24.50
2019-06-08T17:06:47.742Z,23.95
2019-06-08T17:09:14.494Z,23.43
2019-06-08T17:11:41.248Z,23.79
2019-06-08T17:14:08.051Z,24.19
2019-06-08T17:16:34.797Z,24.99
2019-06-08T17:19:01.526Z,25.57
2019-06-08T17:21:28.254Z,25.57
2019-06-08T17:23:55.082Z,25.73
2019-06-08T17:26:22.027Z,25.17
2019-06-08T17:28:48.628Z,24.77
2019-06-08T17:31:15.409Z,24.35
2019-06-08T17:33:42.130Z,24.68
2019-06-08T17:36:08.876Z,24.99
2019-06-08T17:38:35.654Z,25.47
2019-06-08T17:41:02.421Z,25.46
2019-06-08T17:43:29.150Z,26.46
2019-06-08T17:45:55.887Z,27.13
2019-06-08T17:48:22.602Z,27.03
2019-06-08T17:50:49.354Z,27.52
2019-06-08T17:53:16.198Z,29.03
2019-06-08T17:55:43.679Z,29.05
2019-06-08T17:58:09.694Z,28.12
2019-06-08T18:00:37.459Z,27.70
2019-06-08T18:03:03.282Z,28.60
2019-06-08T18:05:30.033Z,28.93
2019-06-08T18:07:57.870Z,28.04
2019-06-08T18:10:23.498Z,28.65
2019-06-08T18:12:50.234Z,28.48
2019-06-08T18:15:17.447Z,27.72
2019-06-08T18:17:45.048Z,27.66
2019-06-08T18:20:10.466Z,27.45
2019-06-08T18:22:40.991Z,27.18
2019-06-08T18:25:03.982Z,26.26
2019-06-08T18:27:30.718Z,25.51
2019-06-08T18:29:58.209Z,24.93
2019-06-08T18:32:24.186Z,24.81
2019-06-08T18:34:50.915Z,22.88
2019-06-08T18:37:18.110Z,21.70
2019-06-08T18:39:45.853Z,20.75
2019-06-08T18:42:11.131Z,20.44
2019-06-08T18:44:40.775Z,20.65
2019-06-08T18:47:06.829Z,19.83
2019-06-08T18:49:31.824Z,19.67
2019-06-08T18:51:58.546Z,19.49
2019-06-08T18:54:27.789Z,19.12
2019-06-08T18:56:52.034Z,18.88
2019-06-08T18:59:18.774Z,18.65
2019-06-08T19:01:48.049Z,18.50
2019-06-08T19:04:12.234Z,18.10
2019-06-08T19:06:40.575Z,18.08
2019-06-08T19:09:07.588Z,18.03
2019-06-08T19:11:32.534Z,17.86
2019-06-08T19:13:59.288Z,17.63
2019-06-08T19:16:28.199Z,18.14
2019-06-08T19:18:52.987Z,17.64
2019-06-08T19:21:19.506Z,17.47
2019-06-08T19:23:49.259Z,17.45
2019-06-08T19:26:12.981Z,17.34
2019-06-08T19:28:42.864Z,17.25
2019-06-08T19:31:07.908Z,18.03
2019-06-08T19:33:33.174Z,17.26
2019-06-08T19:35:59.918Z,17.49
2019-06-08T19:38:27.973Z,17.37
2019-06-08T19:40:53.399Z,17.37
2019-06-08T19:43:20.133Z,17.50
2019-06-08T19:45:50.433Z,18.50
2019-06-08T19:48:13.598Z,17.75
2019-06-08T19:50:41.334Z,17.36
2019-06-08T19:53:07.401Z,17.34
2019-06-08T19:55:33.830Z,17.30
2019-06-08T19:58:00.574Z,17.77
2019-06-08T20:00:28.351Z,17.44
2019-06-08T20:02:55.274Z,17.14
2019-06-08T20:05:20.810Z,17.06
2019-06-08T20:07:47.538Z,17.12
2019-06-08T20:10:14.294Z,17.03
2019-06-08T20:12:41.208Z,17.00
2019-06-08T20:15:08.551Z,16.71
2019-06-08T20:17:34.506Z,16.69
2019-06-08T20:20:01.266Z,16.62
2019-06-08T20:22:28.006Z,16.28
2019-06-08T20:24:55.913Z,16.02
2019-06-08T20:27:21.926Z,16.89
2019-06-08T20:29:50.693Z,16.34
2019-06-08T20:32:17.891Z,16.36
2019-06-08T20:34:42.450Z,16.22
2019-06-08T20:37:09.007Z,16.02
2019-06-08T20:39:38.022Z,15.95
2019-06-08T20:42:02.462Z,15.73
2019-06-08T20:44:30.266Z,15.86
2019-06-08T20:46:57.714Z,15.93
2019-06-08T20:49:22.690Z,16.25
2019-06-08T20:51:50.893Z,15.89
2019-06-08T20:54:17.261Z,15.85
2019-06-08T20:56:43.023Z,16.53
2019-06-08T20:59:09.654Z,15.98
2019-06-08T21:01:36.390Z,16.01
2019-06-08T21:04:03.166Z,16.09
2019-06-08T21:06:29.917Z,16.39
2019-06-08T21:08:57.944Z,15.73
2019-06-08T21:11:23.415Z,15.38
2019-06-08T21:13:52.376Z,15.06
2019-06-08T21:16:18.210Z,14.82
2019-06-08T21:18:44.698Z,14.81
2019-06-08T21:21:10.474Z,14.76
2019-06-08T21:23:37.205Z,14.77
2019-06-08T21:26:03.950Z,14.94
2019-06-08T21:28:30.683Z,14.64
2019-06-08T21:31:01.862Z,15.57
2019-06-08T21:33:24.255Z,14.76
2019-06-08T21:35:53.476Z,14.28
2019-06-08T21:38:23.745Z,13.56
2019-06-08T21:40:44.591Z,13.63
2019-06-08T21:43:11.462Z,13.52
2019-06-08T21:45:38.284Z,13.66
2019-06-08T21:48:07.357Z,13.76
2019-06-08T21:50:31.738Z,14.68
2019-06-08T21:53:00.242Z,14.20
2019-06-08T21:55:27.179Z,14.30
2019-06-08T21:57:53.929Z,13.50
2019-06-08T22:00:35.864Z,13.68
2019-06-08T22:02:47.836Z,14.45
2019-06-08T22:05:12.442Z,13.97
2019-06-08T22:07:39.221Z,13.71
2019-06-08T22:10:07.507Z,13.64
2019-06-08T22:12:32.878Z,13.78
2019-06-08T22:15:00.988Z,13.36
2019-06-08T22:17:27.746Z,13.68
2019-06-08T22:19:53.284Z,13.61
2019-06-08T22:22:20.038Z,14.47
2019-06-08T22:24:47.475Z,14.04
2019-06-08T22:27:13.608Z,13.84
2019-06-08T22:29:40.385Z,13.79
2019-06-08T22:32:07.623Z,13.59
2019-06-08T22:34:34.002Z,13.47
2019-06-08T22:37:00.791Z,14.09
2019-06-08T22:39:28.167Z,13.42
2019-06-08T22:41:56.075Z,13.45
2019-06-08T22:44:21.260Z,13.50
2019-06-08T22:46:48.062Z,13.54
2019-06-08T22:49:15.397Z,13.33
2019-06-08T22:51:41.645Z,13.42
2019-06-08T22:54:08.435Z,13.39
2019-06-08T22:56:37.219Z,12.53
2019-06-08T22:59:04.607Z,12.48
2019-06-08T23:01:28.759Z,12.59
2019-06-08T23:03:56.981Z,12.71
2019-06-08T23:06:22.271Z,12.67
2019-06-08T23:08:49.022Z,12.96
2019-06-08T23:11:17.852Z,13.11
2019-06-08T23:13:42.611Z,13.80
2019-06-08T23:16:09.420Z,13.48
2019-06-08T23:18:37.303Z,13.30
2019-06-08T23:21:04.264Z,13.23
2019-06-08T23:23:29.681Z,13.29
2019-06-08T23:26:00.331Z,13.00
2019-06-08T23:28:23.223Z,12.94
2019-06-08T23:31:03.673Z,12.93
2019-06-08T23:33:18.883Z,12.71
2019-06-08T23:36:14.520Z,12.59
2019-06-08T23:38:10.319Z,13.42
2019-06-08T23:40:37.865Z,12.58
2019-06-08T23:43:04.252Z,12.14
2019-06-08T23:45:30.510Z,12.12
2019-06-08T23:47:59.909Z,12.00
2019-06-08T23:50:24.053Z,12.02
2019-06-08T23:52:50.769Z,11.74
2019-06-08T23:55:18.137Z,11.67
2019-06-08T23:57:44.268Z,11.66
